sensor_id;sensor_type;location;lat;lon;timestamp;P1;durP1;ratioP1;P2;durP2;ratioP2
64854;SDS011;51321;50.428;8.378;2023-05-23T00:00:25;43.22;;;34.45;;
64854;SDS011;51321;50.428;8.378;2023-05-23T00:03:09;51.75;;;39.40;;
64854;SDS011;51321;50.428;8.378;2023-05-23T00:05:50;49.60;;;40.10;;
64854;SDS011;51321;50.428;8.378;2023-05-23T00:08:32;46.33;;;38.10;;
64854;SDS011;51321;50.428;8.378;2023-05-23T00:11:13;44.80;;;35.63;;
64854;SDS011;51321;50.428;8.378;2023-05-23T00:13:58;44.40;;;33.58;;
64854;SDS011;51321;50.428;8.378;2023-05-23T00:16:40;45.83;;;36.22;;
64854;SDS011;51321;50.428;8.378;2023-05-23T00:19:24;43.53;;;35.08;;
64854;SDS011;51321;50.428;8.378;2023-05-23T00:22:05;39.03;;;33.20;;
64854;SDS011;51321;50.428;8.378;2023-05-23T00:24:47;39.63;;;31.73;;
64854;SDS011;51321;50.428;8.378;2023-05-23T00:27:29;40.22;;;32.22;;
64854;SDS011;51321;50.428;8.378;2023-05-23T00:30:10;38.90;;;31.95;;
64854;SDS011;51321;50.428;8.378;2023-05-23T00:32:51;38.40;;;32.43;;
64854;SDS011;51321;50.428;8.378;2023-05-23T00:35:34;40.03;;;33.90;;
64854;SDS011;51321;50.428;8.378;2023-05-23T00:38:15;36.10;;;30.83;;
64854;SDS011;51321;50.428;8.378;2023-05-23T00:40:56;35.90;;;30.88;;
64854;SDS011;51321;50.428;8.378;2023-05-23T00:43:38;40.53;;;32.95;;
64854;SDS011;51321;50.428;8.378;2023-05-23T00:46:18;47.72;;;33.28;;
64854;SDS011;51321;50.428;8.378;2023-05-23T00:49:00;37.85;;;31.27;;
64854;SDS011;51321;50.428;8.378;2023-05-23T00:51:43;38.90;;;31.85;;
64854;SDS011;51321;50.428;8.378;2023-05-23T00:57:06;40.50;;;32.85;;
64854;SDS011;51321;50.428;8.378;2023-05-23T00:59:47;37.60;;;32.67;;
64854;SDS011;51321;50.428;8.378;2023-05-23T01:02:29;40.47;;;32.88;;
64854;SDS011;51321;50.428;8.378;2023-05-23T01:05:14;38.50;;;32.25;;
64854;SDS011;51321;50.428;8.378;2023-05-23T01:07:57;39.47;;;32.63;;
64854;SDS011;51321;50.428;8.378;2023-05-23T01:10:41;35.17;;;31.33;;
64854;SDS011;51321;50.428;8.378;2023-05-23T01:13:23;34.80;;;30.52;;
64854;SDS011;51321;50.428;8.378;2023-05-23T01:16:11;39.60;;;30.13;;
64854;SDS011;51321;50.428;8.378;2023-05-23T01:18:58;37.92;;;31.35;;
64854;SDS011;51321;50.428;8.378;2023-05-23T01:21:48;39.20;;;31.30;;
64854;SDS011;51321;50.428;8.378;2023-05-23T01:24:38;32.40;;;29.00;;
64854;SDS011;51321;50.428;8.378;2023-05-23T01:30:29;32.08;;;28.77;;
64854;SDS011;51321;50.428;8.378;2023-05-23T01:33:15;33.67;;;29.73;;
64854;SDS011;51321;50.428;8.378;2023-05-23T01:35:57;34.63;;;29.48;;
64854;SDS011;51321;50.428;8.378;2023-05-23T01:38:41;32.58;;;29.13;;
64854;SDS011;51321;50.428;8.378;2023-05-23T01:41:22;31.63;;;28.27;;
64854;SDS011;51321;50.428;8.378;2023-05-23T01:44:05;30.73;;;27.60;;
64854;SDS011;51321;50.428;8.378;2023-05-23T01:46:46;35.30;;;27.88;;
64854;SDS011;51321;50.428;8.378;2023-05-23T01:49:29;29.05;;;26.05;;
64854;SDS011;51321;50.428;8.378;2023-05-23T01:52:11;28.55;;;25.48;;
64854;SDS011;51321;50.428;8.378;2023-05-23T01:54:54;34.35;;;25.58;;
64854;SDS011;51321;50.428;8.378;2023-05-23T01:57:38;26.90;;;24.10;;
64854;SDS011;51321;50.428;8.378;2023-05-23T02:00:20;30.15;;;24.38;;
64854;SDS011;51321;50.428;8.378;2023-05-23T02:03:02;25.27;;;22.70;;
64854;SDS011;51321;50.428;8.378;2023-05-23T02:05:45;24.58;;;22.15;;
64854;SDS011;51321;50.428;8.378;2023-05-23T02:08:26;23.83;;;21.55;;
64854;SDS011;51321;50.428;8.378;2023-05-23T02:11:08;23.23;;;21.03;;
64854;SDS011;51321;50.428;8.378;2023-05-23T02:13:49;23.00;;;20.65;;
64854;SDS011;51321;50.428;8.378;2023-05-23T02:16:32;23.20;;;20.67;;
64854;SDS011;51321;50.428;8.378;2023-05-23T02:19:14;22.67;;;20.27;;
64854;SDS011;51321;50.428;8.378;2023-05-23T02:21:58;22.38;;;20.25;;
64854;SDS011;51321;50.428;8.378;2023-05-23T02:24:39;25.17;;;20.77;;
64854;SDS011;51321;50.428;8.378;2023-05-23T02:27:20;24.40;;;21.95;;
64854;SDS011;51321;50.428;8.378;2023-05-23T02:30:01;23.90;;;21.60;;
64854;SDS011;51321;50.428;8.378;2023-05-23T02:32:43;24.98;;;22.50;;
64854;SDS011;51321;50.428;8.378;2023-05-23T02:35:25;22.63;;;20.27;;
64854;SDS011;51321;50.428;8.378;2023-05-23T02:38:06;23.25;;;20.95;;
64854;SDS011;51321;50.428;8.378;2023-05-23T02:40:47;22.58;;;19.85;;
64854;SDS011;51321;50.428;8.378;2023-05-23T02:43:30;23.48;;;21.15;;
64854;SDS011;51321;50.428;8.378;2023-05-23T02:46:10;26.17;;;21.52;;
64854;SDS011;51321;50.428;8.378;2023-05-23T02:48:54;23.00;;;20.80;;
64854;SDS011;51321;50.428;8.378;2023-05-23T02:51:35;22.50;;;20.30;;
64854;SDS011;51321;50.428;8.378;2023-05-23T02:54:16;24.58;;;21.60;;
64854;SDS011;51321;50.428;8.378;2023-05-23T02:56:57;26.20;;;22.00;;
64854;SDS011;51321;50.428;8.378;2023-05-23T02:59:39;23.63;;;21.17;;
64854;SDS011;51321;50.428;8.378;2023-05-23T03:02:20;26.17;;;21.77;;
64854;SDS011;51321;50.428;8.378;2023-05-23T03:05:03;27.92;;;23.00;;
64854;SDS011;51321;50.428;8.378;2023-05-23T03:07:44;23.85;;;21.38;;
64854;SDS011;51321;50.428;8.378;2023-05-23T03:10:26;20.83;;;18.67;;
64854;SDS011;51321;50.428;8.378;2023-05-23T03:13:08;19.70;;;17.55;;
64854;SDS011;51321;50.428;8.378;2023-05-23T03:15:49;23.38;;;18.48;;
64854;SDS011;51321;50.428;8.378;2023-05-23T03:18:30;20.65;;;18.48;;
64854;SDS011;51321;50.428;8.378;2023-05-23T03:21:12;19.45;;;17.42;;
64854;SDS011;51321;50.428;8.378;2023-05-23T03:23:53;19.35;;;17.38;;
64854;SDS011;51321;50.428;8.378;2023-05-23T03:26:34;21.23;;;17.88;;
64854;SDS011;51321;50.428;8.378;2023-05-23T03:29:15;18.48;;;16.50;;
64854;SDS011;51321;50.428;8.378;2023-05-23T03:31:56;18.35;;;16.48;;
64854;SDS011;51321;50.428;8.378;2023-05-23T03:34:37;19.50;;;17.13;;
64854;SDS011;51321;50.428;8.378;2023-05-23T03:37:20;18.52;;;16.45;;
64854;SDS011;51321;50.428;8.378;2023-05-23T03:40:01;19.52;;;17.42;;
64854;SDS011;51321;50.428;8.378;2023-05-23T03:42:42;19.08;;;16.40;;
64854;SDS011;51321;50.428;8.378;2023-05-23T03:45:23;20.25;;;18.10;;
64854;SDS011;51321;50.428;8.378;2023-05-23T03:48:04;20.52;;;18.42;;
64854;SDS011;51321;50.428;8.378;2023-05-23T03:50:45;19.38;;;17.58;;
64854;SDS011;51321;50.428;8.378;2023-05-23T03:53:28;22.13;;;19.10;;
64854;SDS011;51321;50.428;8.378;2023-05-23T03:56:09;22.23;;;19.92;;
64854;SDS011;51321;50.428;8.378;2023-05-23T03:58:50;21.73;;;19.48;;
64854;SDS011;51321;50.428;8.378;2023-05-23T04:01:31;22.67;;;20.27;;
64854;SDS011;51321;50.428;8.378;2023-05-23T04:04:12;21.80;;;19.83;;
64854;SDS011;51321;50.428;8.378;2023-05-23T04:06:54;24.52;;;21.92;;
64854;SDS011;51321;50.428;8.378;2023-05-23T04:09:38;24.77;;;22.33;;
64854;SDS011;51321;50.428;8.378;2023-05-23T04:12:21;25.77;;;23.13;;
64854;SDS011;51321;50.428;8.378;2023-05-23T04:15:03;25.25;;;22.77;;
64854;SDS011;51321;50.428;8.378;2023-05-23T04:17:47;25.50;;;22.98;;
64854;SDS011;51321;50.428;8.378;2023-05-23T04:20:30;25.13;;;22.70;;
64854;SDS011;51321;50.428;8.378;2023-05-23T04:23:11;27.40;;;24.60;;
64854;SDS011;51321;50.428;8.378;2023-05-23T04:25:56;28.20;;;25.40;;
64854;SDS011;51321;50.428;8.378;2023-05-23T04:28:39;27.98;;;25.13;;
64854;SDS011;51321;50.428;8.378;2023-05-23T04:31:21;29.52;;;26.58;;
64854;SDS011;51321;50.428;8.378;2023-05-23T04:34:03;30.77;;;27.77;;
64854;SDS011;51321;50.428;8.378;2023-05-23T04:36:49;28.77;;;25.98;;
64854;SDS011;51321;50.428;8.378;2023-05-23T04:39:31;27.87;;;25.07;;
64854;SDS011;51321;50.428;8.378;2023-05-23T04:42:40;27.77;;;25.00;;
64854;SDS011;51321;50.428;8.378;2023-05-23T04:45:45;26.23;;;23.77;;
64854;SDS011;51321;50.428;8.378;2023-05-23T04:48:56;26.85;;;24.15;;
64854;SDS011;51321;50.428;8.378;2023-05-23T04:51:38;24.23;;;22.02;;
64854;SDS011;51321;50.428;8.378;2023-05-23T04:54:45;22.95;;;20.63;;
64854;SDS011;51321;50.428;8.378;2023-05-23T04:57:26;24.15;;;21.85;;
64854;SDS011;51321;50.428;8.378;2023-05-23T05:00:12;20.85;;;18.85;;
64854;SDS011;51321;50.428;8.378;2023-05-23T05:02:54;20.27;;;18.38;;
64854;SDS011;51321;50.428;8.378;2023-05-23T05:05:40;19.92;;;18.02;;
64854;SDS011;51321;50.428;8.378;2023-05-23T05:08:20;19.48;;;17.67;;
64854;SDS011;51321;50.428;8.378;2023-05-23T05:11:02;18.50;;;16.73;;
64854;SDS011;51321;50.428;8.378;2023-05-23T05:13:44;19.67;;;17.90;;
64854;SDS011;51321;50.428;8.378;2023-05-23T05:16:27;18.45;;;16.65;;
64854;SDS011;51321;50.428;8.378;2023-05-23T05:19:08;18.35;;;16.63;;
64854;SDS011;51321;50.428;8.378;2023-05-23T05:21:49;16.67;;;14.57;;
64854;SDS011;51321;50.428;8.378;2023-05-23T05:24:31;13.45;;;12.15;;
64854;SDS011;51321;50.428;8.378;2023-05-23T05:27:12;14.05;;;12.68;;
64854;SDS011;51321;50.428;8.378;2023-05-23T05:29:53;13.93;;;12.63;;
64854;SDS011;51321;50.428;8.378;2023-05-23T05:32:38;14.10;;;12.80;;
64854;SDS011;51321;50.428;8.378;2023-05-23T05:35:20;14.23;;;12.93;;
64854;SDS011;51321;50.428;8.378;2023-05-23T05:38:01;13.95;;;12.55;;
64854;SDS011;51321;50.428;8.378;2023-05-23T05:40:43;14.23;;;12.93;;
64854;SDS011;51321;50.428;8.378;2023-05-23T05:43:24;17.42;;;15.63;;
64854;SDS011;51321;50.428;8.378;2023-05-23T05:46:05;16.70;;;15.18;;
64854;SDS011;51321;50.428;8.378;2023-05-23T05:48:49;20.70;;;16.67;;
64854;SDS011;51321;50.428;8.378;2023-05-23T05:51:32;15.35;;;13.90;;
64854;SDS011;51321;50.428;8.378;2023-05-23T05:54:14;15.60;;;14.20;;
64854;SDS011;51321;50.428;8.378;2023-05-23T05:56:56;14.90;;;13.55;;
64854;SDS011;51321;50.428;8.378;2023-05-23T05:59:39;16.58;;;14.98;;
64854;SDS011;51321;50.428;8.378;2023-05-23T06:02:20;13.95;;;12.65;;
64854;SDS011;51321;50.428;8.378;2023-05-23T06:05:02;14.90;;;13.60;;
64854;SDS011;51321;50.428;8.378;2023-05-23T06:07:47;15.43;;;13.23;;
64854;SDS011;51321;50.428;8.378;2023-05-23T06:10:29;15.15;;;13.68;;
64854;SDS011;51321;50.428;8.378;2023-05-23T06:13:10;13.40;;;12.10;;
64854;SDS011;51321;50.428;8.378;2023-05-23T06:15:52;11.68;;;10.48;;
64854;SDS011;51321;50.428;8.378;2023-05-23T06:18:34;13.50;;;12.10;;
64854;SDS011;51321;50.428;8.378;2023-05-23T06:21:18;11.88;;;10.77;;
64854;SDS011;51321;50.428;8.378;2023-05-23T06:24:01;11.65;;;10.40;;
64854;SDS011;51321;50.428;8.378;2023-05-23T06:26:43;12.05;;;10.95;;
64854;SDS011;51321;50.428;8.378;2023-05-23T06:29:23;11.82;;;10.65;;
64854;SDS011;51321;50.428;8.378;2023-05-23T06:32:05;10.88;;;9.82;;
64854;SDS011;51321;50.428;8.378;2023-05-23T06:34:46;10.73;;;9.82;;
64854;SDS011;51321;50.428;8.378;2023-05-23T06:37:28;10.57;;;9.70;;
64854;SDS011;51321;50.428;8.378;2023-05-23T06:40:10;13.60;;;9.73;;
64854;SDS011;51321;50.428;8.378;2023-05-23T06:42:58;10.82;;;9.77;;
64854;SDS011;51321;50.428;8.378;2023-05-23T06:46:03;10.30;;;9.40;;
64854;SDS011;51321;50.428;8.378;2023-05-23T06:48:44;10.15;;;9.25;;
64854;SDS011;51321;50.428;8.378;2023-05-23T06:51:26;10.52;;;9.43;;
64854;SDS011;51321;50.428;8.378;2023-05-23T06:54:09;8.95;;;8.07;;
64854;SDS011;51321;50.428;8.378;2023-05-23T06:56:50;9.93;;;8.13;;
64854;SDS011;51321;50.428;8.378;2023-05-23T06:59:32;8.38;;;7.65;;
64854;SDS011;51321;50.428;8.378;2023-05-23T07:02:14;8.93;;;7.88;;
64854;SDS011;51321;50.428;8.378;2023-05-23T07:04:55;7.47;;;6.75;;
64854;SDS011;51321;50.428;8.378;2023-05-23T07:07:56;8.13;;;7.38;;
64854;SDS011;51321;50.428;8.378;2023-05-23T07:10:39;8.32;;;7.53;;
64854;SDS011;51321;50.428;8.378;2023-05-23T07:13:33;8.07;;;7.28;;
64854;SDS011;51321;50.428;8.378;2023-05-23T07:16:14;7.88;;;7.18;;
64854;SDS011;51321;50.428;8.378;2023-05-23T07:19:08;8.30;;;6.85;;
64854;SDS011;51321;50.428;8.378;2023-05-23T07:21:58;7.97;;;6.50;;
64854;SDS011;51321;50.428;8.378;2023-05-23T07:24:39;6.75;;;6.20;;
64854;SDS011;51321;50.428;8.378;2023-05-23T07:27:22;7.22;;;6.53;;
64854;SDS011;51321;50.428;8.378;2023-05-23T07:30:03;7.10;;;6.40;;
64854;SDS011;51321;50.428;8.378;2023-05-23T07:32:49;6.82;;;5.85;;
64854;SDS011;51321;50.428;8.378;2023-05-23T07:35:30;7.07;;;5.40;;
64854;SDS011;51321;50.428;8.378;2023-05-23T07:38:13;5.47;;;4.97;;
64854;SDS011;51321;50.428;8.378;2023-05-23T07:40:54;6.03;;;5.00;;
64854;SDS011;51321;50.428;8.378;2023-05-23T07:43:36;5.85;;;5.25;;
64854;SDS011;51321;50.428;8.378;2023-05-23T07:46:18;4.50;;;4.10;;
64854;SDS011;51321;50.428;8.378;2023-05-23T07:51:41;7.15;;;4.35;;
64854;SDS011;51321;50.428;8.378;2023-05-23T07:54:23;4.68;;;4.05;;
64854;SDS011;51321;50.428;8.378;2023-05-23T07:57:09;4.88;;;3.50;;
64854;SDS011;51321;50.428;8.378;2023-05-23T07:59:52;3.90;;;3.43;;
64854;SDS011;51321;50.428;8.378;2023-05-23T08:05:14;3.58;;;3.28;;
64854;SDS011;51321;50.428;8.378;2023-05-23T08:07:58;3.63;;;3.30;;
64854;SDS011;51321;50.428;8.378;2023-05-23T08:10:39;4.57;;;3.00;;
64854;SDS011;51321;50.428;8.378;2023-05-23T08:13:26;4.07;;;3.00;;
64854;SDS011;51321;50.428;8.378;2023-05-23T08:16:29;3.53;;;3.22;;
64854;SDS011;51321;50.428;8.378;2023-05-23T08:19:10;5.50;;;3.17;;
64854;SDS011;51321;50.428;8.378;2023-05-23T08:21:51;4.40;;;3.45;;
64854;SDS011;51321;50.428;8.378;2023-05-23T08:24:32;3.97;;;3.60;;
64854;SDS011;51321;50.428;8.378;2023-05-23T08:27:14;3.50;;;3.17;;
64854;SDS011;51321;50.428;8.378;2023-05-23T08:29:54;5.50;;;3.00;;
64854;SDS011;51321;50.428;8.378;2023-05-23T08:32:38;7.72;;;3.05;;
64854;SDS011;51321;50.428;8.378;2023-05-23T08:35:19;3.75;;;3.10;;
64854;SDS011;51321;50.428;8.378;2023-05-23T08:38:00;2.83;;;2.55;;
64854;SDS011;51321;50.428;8.378;2023-05-23T08:40:41;3.00;;;2.65;;
64854;SDS011;51321;50.428;8.378;2023-05-23T08:43:29;4.50;;;3.20;;
64854;SDS011;51321;50.428;8.378;2023-05-23T08:46:10;4.88;;;2.85;;
64854;SDS011;51321;50.428;8.378;2023-05-23T08:48:54;3.40;;;2.63;;
64854;SDS011;51321;50.428;8.378;2023-05-23T08:51:37;4.85;;;2.95;;
64854;SDS011;51321;50.428;8.378;2023-05-23T08:54:27;3.83;;;2.75;;
64854;SDS011;51321;50.428;8.378;2023-05-23T08:57:08;3.55;;;3.03;;
64854;SDS011;51321;50.428;8.378;2023-05-23T08:59:54;4.18;;;3.03;;
64854;SDS011;51321;50.428;8.378;2023-05-23T09:02:38;3.75;;;3.30;;
64854;SDS011;51321;50.428;8.378;2023-05-23T09:05:33;3.85;;;2.95;;
64854;SDS011;51321;50.428;8.378;2023-05-23T09:08:15;5.60;;;3.55;;
64854;SDS011;51321;50.428;8.378;2023-05-23T09:10:57;4.82;;;3.15;;
64854;SDS011;51321;50.428;8.378;2023-05-23T09:13:41;3.65;;;2.80;;
64854;SDS011;51321;50.428;8.378;2023-05-23T09:16:30;6.28;;;2.95;;
64854;SDS011;51321;50.428;8.378;2023-05-23T09:19:17;3.45;;;2.78;;
64854;SDS011;51321;50.428;8.378;2023-05-23T09:22:06;3.78;;;2.95;;
64854;SDS011;51321;50.428;8.378;2023-05-23T09:24:56;5.65;;;3.80;;
64854;SDS011;51321;50.428;8.378;2023-05-23T09:27:37;6.50;;;3.53;;
64854;SDS011;51321;50.428;8.378;2023-05-23T09:30:18;5.25;;;3.38;;
64854;SDS011;51321;50.428;8.378;2023-05-23T09:40:13;4.00;;;3.40;;
64854;SDS011;51321;50.428;8.378;2023-05-23T09:43:01;5.43;;;3.10;;
64854;SDS011;51321;50.428;8.378;2023-05-23T09:45:44;5.90;;;3.65;;
64854;SDS011;51321;50.428;8.378;2023-05-23T09:48:28;4.10;;;3.50;;
64854;SDS011;51321;50.428;8.378;2023-05-23T09:51:09;3.75;;;3.17;;
64854;SDS011;51321;50.428;8.378;2023-05-23T09:53:50;3.80;;;3.30;;
64854;SDS011;51321;50.428;8.378;2023-05-23T09:56:33;6.10;;;3.38;;
64854;SDS011;51321;50.428;8.378;2023-05-23T09:59:19;5.68;;;2.90;;
64854;SDS011;51321;50.428;8.378;2023-05-23T10:02:02;5.32;;;3.03;;
64854;SDS011;51321;50.428;8.378;2023-05-23T10:04:46;2.90;;;2.35;;
64854;SDS011;51321;50.428;8.378;2023-05-23T10:07:29;3.72;;;2.83;;
64854;SDS011;51321;50.428;8.378;2023-05-23T10:10:11;4.28;;;2.70;;
64854;SDS011;51321;50.428;8.378;2023-05-23T10:12:53;4.07;;;2.85;;
64854;SDS011;51321;50.428;8.378;2023-05-23T10:15:37;5.07;;;2.75;;
64854;SDS011;51321;50.428;8.378;2023-05-23T10:18:20;3.72;;;2.60;;
64854;SDS011;51321;50.428;8.378;2023-05-23T10:21:07;4.38;;;2.65;;
64854;SDS011;51321;50.428;8.378;2023-05-23T10:23:51;3.17;;;2.13;;
64854;SDS011;51321;50.428;8.378;2023-05-23T10:34:43;4.03;;;2.08;;
64854;SDS011;51321;50.428;8.378;2023-05-23T10:37:35;2.22;;;1.92;;
64854;SDS011;51321;50.428;8.378;2023-05-23T10:40:23;1.95;;;1.70;;
64854;SDS011;51321;50.428;8.378;2023-05-23T10:43:12;2.33;;;1.70;;
64854;SDS011;51321;50.428;8.378;2023-05-23T10:45:59;2.60;;;2.05;;
64854;SDS011;51321;50.428;8.378;2023-05-23T10:48:41;1.83;;;1.63;;
64854;SDS011;51321;50.428;8.378;2023-05-23T10:51:24;1.58;;;1.48;;
64854;SDS011;51321;50.428;8.378;2023-05-23T10:54:09;1.67;;;1.52;;
64854;SDS011;51321;50.428;8.378;2023-05-23T10:57:01;2.80;;;1.60;;
64854;SDS011;51321;50.428;8.378;2023-05-23T10:59:43;1.63;;;1.27;;
64854;SDS011;51321;50.428;8.378;2023-05-23T11:08:11;1.17;;;1.00;;
64854;SDS011;51321;50.428;8.378;2023-05-23T11:10:54;2.33;;;1.38;;
64854;SDS011;51321;50.428;8.378;2023-05-23T11:13:56;1.58;;;1.00;;
64854;SDS011;51321;50.428;8.378;2023-05-23T11:16:40;1.45;;;1.00;;
64854;SDS011;51321;50.428;8.378;2023-05-23T11:19:24;1.33;;;1.10;;
64854;SDS011;51321;50.428;8.378;2023-05-23T11:22:06;1.75;;;1.25;;
64854;SDS011;51321;50.428;8.378;2023-05-23T11:24:50;2.00;;;1.08;;
64854;SDS011;51321;50.428;8.378;2023-05-23T11:27:32;1.55;;;1.05;;
64854;SDS011;51321;50.428;8.378;2023-05-23T11:30:16;2.03;;;1.15;;
64854;SDS011;51321;50.428;8.378;2023-05-23T11:32:57;4.50;;;1.20;;
64854;SDS011;51321;50.428;8.378;2023-05-23T11:35:38;1.40;;;0.93;;
64854;SDS011;51321;50.428;8.378;2023-05-23T11:38:20;1.75;;;1.00;;
64854;SDS011;51321;50.428;8.378;2023-05-23T11:41:03;3.13;;;1.05;;
64854;SDS011;51321;50.428;8.378;2023-05-23T11:43:50;2.38;;;1.00;;
64854;SDS011;51321;50.428;8.378;2023-05-23T11:46:31;1.92;;;1.20;;
64854;SDS011;51321;50.428;8.378;2023-05-23T11:49:12;1.58;;;1.20;;
64854;SDS011;51321;50.428;8.378;2023-05-23T11:51:53;1.42;;;1.20;;
64854;SDS011;51321;50.428;8.378;2023-05-23T11:54:34;2.45;;;1.40;;
64854;SDS011;51321;50.428;8.378;2023-05-23T11:57:16;1.98;;;1.60;;
64854;SDS011;51321;50.428;8.378;2023-05-23T11:59:57;3.35;;;1.65;;
64854;SDS011;51321;50.428;8.378;2023-05-23T12:02:38;2.58;;;1.67;;
64854;SDS011;51321;50.428;8.378;2023-05-23T12:05:20;3.13;;;1.60;;
64854;SDS011;51321;50.428;8.378;2023-05-23T12:08:01;2.63;;;1.60;;
64854;SDS011;51321;50.428;8.378;2023-05-23T12:10:49;2.45;;;1.83;;
64854;SDS011;51321;50.428;8.378;2023-05-23T12:13:34;3.25;;;1.95;;
64854;SDS011;51321;50.428;8.378;2023-05-23T12:16:15;3.33;;;2.08;;
64854;SDS011;51321;50.428;8.378;2023-05-23T12:18:57;3.30;;;2.00;;
64854;SDS011;51321;50.428;8.378;2023-05-23T12:21:41;2.50;;;2.30;;
64854;SDS011;51321;50.428;8.378;2023-05-23T12:24:23;4.72;;;2.83;;
64854;SDS011;51321;50.428;8.378;2023-05-23T12:27:04;3.72;;;2.92;;
64854;SDS011;51321;50.428;8.378;2023-05-23T12:29:50;5.70;;;3.25;;
64854;SDS011;51321;50.428;8.378;2023-05-23T12:32:32;3.97;;;3.00;;
64854;SDS011;51321;50.428;8.378;2023-05-23T12:35:13;4.95;;;3.20;;
64854;SDS011;51321;50.428;8.378;2023-05-23T12:37:55;3.63;;;3.30;;
64854;SDS011;51321;50.428;8.378;2023-05-23T12:40:36;4.17;;;3.20;;
64854;SDS011;51321;50.428;8.378;2023-05-23T12:43:18;4.03;;;3.63;;
64854;SDS011;51321;50.428;8.378;2023-05-23T12:46:00;5.78;;;3.75;;
64854;SDS011;51321;50.428;8.378;2023-05-23T12:48:47;6.50;;;3.92;;
64854;SDS011;51321;50.428;8.378;2023-05-23T12:51:29;4.85;;;3.65;;
64854;SDS011;51321;50.428;8.378;2023-05-23T12:54:10;7.45;;;3.53;;
64854;SDS011;51321;50.428;8.378;2023-05-23T12:56:51;4.43;;;3.92;;
64854;SDS011;51321;50.428;8.378;2023-05-23T12:59:32;7.45;;;3.78;;
64854;SDS011;51321;50.428;8.378;2023-05-23T13:02:16;5.65;;;3.75;;
64854;SDS011;51321;50.428;8.378;2023-05-23T13:04:57;5.65;;;4.40;;
64854;SDS011;51321;50.428;8.378;2023-05-23T13:07:38;5.57;;;4.28;;
64854;SDS011;51321;50.428;8.378;2023-05-23T13:10:19;7.03;;;4.80;;
64854;SDS011;51321;50.428;8.378;2023-05-23T13:13:00;7.45;;;3.97;;
64854;SDS011;51321;50.428;8.378;2023-05-23T13:15:41;6.40;;;4.47;;
64854;SDS011;51321;50.428;8.378;2023-05-23T13:18:24;6.15;;;4.03;;
64854;SDS011;51321;50.428;8.378;2023-05-23T13:21:05;5.68;;;4.03;;
64854;SDS011;51321;50.428;8.378;2023-05-23T13:23:46;4.72;;;4.13;;
64854;SDS011;51321;50.428;8.378;2023-05-23T13:26:27;6.65;;;4.32;;
64854;SDS011;51321;50.428;8.378;2023-05-23T13:29:08;6.30;;;4.43;;
64854;SDS011;51321;50.428;8.378;2023-05-23T13:31:49;6.68;;;4.50;;
64854;SDS011;51321;50.428;8.378;2023-05-23T13:34:32;6.80;;;4.63;;
64854;SDS011;51321;50.428;8.378;2023-05-23T13:37:15;4.93;;;3.83;;
64854;SDS011;51321;50.428;8.378;2023-05-23T13:39:56;4.88;;;3.60;;
64854;SDS011;51321;50.428;8.378;2023-05-23T13:42:38;5.32;;;3.55;;
64854;SDS011;51321;50.428;8.378;2023-05-23T13:45:19;5.55;;;3.22;;
64854;SDS011;51321;50.428;8.378;2023-05-23T13:48:02;6.85;;;3.63;;
64854;SDS011;51321;50.428;8.378;2023-05-23T13:50:45;5.97;;;4.32;;
64854;SDS011;51321;50.428;8.378;2023-05-23T13:53:26;5.68;;;4.68;;
64854;SDS011;51321;50.428;8.378;2023-05-23T13:56:07;5.90;;;4.40;;
64854;SDS011;51321;50.428;8.378;2023-05-23T13:58:48;6.15;;;4.55;;
64854;SDS011;51321;50.428;8.378;2023-05-23T14:01:29;5.90;;;4.50;;
64854;SDS011;51321;50.428;8.378;2023-05-23T14:04:10;6.15;;;4.40;;
64854;SDS011;51321;50.428;8.378;2023-05-23T14:06:54;5.93;;;4.22;;
64854;SDS011;51321;50.428;8.378;2023-05-23T14:09:35;5.00;;;3.88;;
64854;SDS011;51321;50.428;8.378;2023-05-23T14:12:16;5.80;;;3.67;;
64854;SDS011;51321;50.428;8.378;2023-05-23T14:14:57;6.13;;;3.97;;
64854;SDS011;51321;50.428;8.378;2023-05-23T14:17:38;6.07;;;4.10;;
64854;SDS011;51321;50.428;8.378;2023-05-23T14:20:20;5.28;;;3.72;;
64854;SDS011;51321;50.428;8.378;2023-05-23T14:23:02;5.40;;;4.00;;
64854;SDS011;51321;50.428;8.378;2023-05-23T14:25:44;5.75;;;3.97;;
64854;SDS011;51321;50.428;8.378;2023-05-23T14:28:25;5.53;;;3.75;;
64854;SDS011;51321;50.428;8.378;2023-05-23T14:31:06;4.78;;;3.90;;
64854;SDS011;51321;50.428;8.378;2023-05-23T14:33:47;4.00;;;3.22;;
64854;SDS011;51321;50.428;8.378;2023-05-23T14:36:29;4.05;;;3.30;;
64854;SDS011;51321;50.428;8.378;2023-05-23T14:39:12;7.55;;;4.10;;
64854;SDS011;51321;50.428;8.378;2023-05-23T14:41:54;5.80;;;3.50;;
64854;SDS011;51321;50.428;8.378;2023-05-23T14:44:35;4.32;;;2.70;;
64854;SDS011;51321;50.428;8.378;2023-05-23T14:47:16;3.55;;;2.53;;
64854;SDS011;51321;50.428;8.378;2023-05-23T14:49:59;4.95;;;2.90;;
64854;SDS011;51321;50.428;8.378;2023-05-23T14:52:40;4.60;;;3.30;;
64854;SDS011;51321;50.428;8.378;2023-05-23T14:55:23;5.45;;;3.30;;
64854;SDS011;51321;50.428;8.378;2023-05-23T15:00:45;4.20;;;3.13;;
64854;SDS011;51321;50.428;8.378;2023-05-23T15:03:26;3.83;;;2.70;;
64854;SDS011;51321;50.428;8.378;2023-05-23T15:06:08;5.90;;;3.17;;
64854;SDS011;51321;50.428;8.378;2023-05-23T15:08:49;5.75;;;2.90;;
64854;SDS011;51321;50.428;8.378;2023-05-23T15:11:31;7.10;;;2.67;;
64854;SDS011;51321;50.428;8.378;2023-05-23T15:14:15;3.88;;;2.50;;
64854;SDS011;51321;50.428;8.378;2023-05-23T15:16:56;5.95;;;2.42;;
64854;SDS011;51321;50.428;8.378;2023-05-23T15:19:45;4.35;;;2.10;;
64854;SDS011;51321;50.428;8.378;2023-05-23T15:22:26;4.22;;;2.10;;
64854;SDS011;51321;50.428;8.378;2023-05-23T15:25:08;3.42;;;2.30;;
64854;SDS011;51321;50.428;8.378;2023-05-23T15:27:51;4.35;;;2.13;;
64854;SDS011;51321;50.428;8.378;2023-05-23T15:30:32;4.30;;;2.10;;
64854;SDS011;51321;50.428;8.378;2023-05-23T15:33:13;5.07;;;2.38;;
64854;SDS011;51321;50.428;8.378;2023-05-23T15:35:54;4.65;;;2.13;;
64854;SDS011;51321;50.428;8.378;2023-05-23T15:38:37;4.25;;;2.17;;
64854;SDS011;51321;50.428;8.378;2023-05-23T15:41:17;4.45;;;2.45;;
64854;SDS011;51321;50.428;8.378;2023-05-23T15:44:00;4.63;;;2.22;;
64854;SDS011;51321;50.428;8.378;2023-05-23T15:46:41;3.40;;;2.45;;
64854;SDS011;51321;50.428;8.378;2023-05-23T15:49:22;3.30;;;2.35;;
64854;SDS011;51321;50.428;8.378;2023-05-23T15:52:03;4.97;;;2.38;;
64854;SDS011;51321;50.428;8.378;2023-05-23T15:54:44;5.00;;;3.10;;
64854;SDS011;51321;50.428;8.378;2023-05-23T15:57:25;6.78;;;3.15;;
64854;SDS011;51321;50.428;8.378;2023-05-23T16:00:09;8.70;;;3.67;;
64854;SDS011;51321;50.428;8.378;2023-05-23T16:02:51;7.35;;;3.63;;
64854;SDS011;51321;50.428;8.378;2023-05-23T16:05:31;4.78;;;2.75;;
64854;SDS011;51321;50.428;8.378;2023-05-23T16:08:12;5.90;;;3.20;;
64854;SDS011;51321;50.428;8.378;2023-05-23T16:10:54;5.45;;;2.40;;
64854;SDS011;51321;50.428;8.378;2023-05-23T16:13:36;5.45;;;2.60;;
64854;SDS011;51321;50.428;8.378;2023-05-23T16:16:19;6.30;;;2.95;;
64854;SDS011;51321;50.428;8.378;2023-05-23T16:18:59;6.97;;;3.30;;
64854;SDS011;51321;50.428;8.378;2023-05-23T16:21:40;6.05;;;3.30;;
64854;SDS011;51321;50.428;8.378;2023-05-23T16:24:21;4.88;;;2.72;;
64854;SDS011;51321;50.428;8.378;2023-05-23T16:27:04;7.05;;;2.97;;
64854;SDS011;51321;50.428;8.378;2023-05-23T16:29:45;6.03;;;2.80;;
64854;SDS011;51321;50.428;8.378;2023-05-23T16:32:28;6.57;;;3.10;;
64854;SDS011;51321;50.428;8.378;2023-05-23T16:35:09;7.28;;;2.85;;
64854;SDS011;51321;50.428;8.378;2023-05-23T16:37:50;5.45;;;2.60;;
64854;SDS011;51321;50.428;8.378;2023-05-23T16:40:31;5.85;;;2.85;;
64854;SDS011;51321;50.428;8.378;2023-05-23T16:43:12;4.70;;;2.72;;